createdAt,value
2022-12-13T00:01:34.367Z,11.83
2022-12-13T00:04:05.070Z,10.73
2022-12-13T00:06:34.311Z,11.53
2022-12-13T00:09:02.848Z,11.10
2022-12-13T00:11:30.717Z,11.20
2022-12-13T00:13:59.276Z,11.40
2022-12-13T00:16:28.449Z,10.37
2022-12-13T00:18:59.484Z,12.27
2022-12-13T00:21:30.966Z,12.03
2022-12-13T00:24:00.107Z,10.97
2022-12-13T00:26:30.175Z,11.43
2022-12-13T00:29:00.597Z,10.90
2022-12-13T00:34:22.504Z,10.90
2022-12-13T00:36:50.779Z,11.10
2022-12-13T00:39:19.347Z,10.70
2022-12-13T00:41:47.735Z,10.30
2022-12-13T00:44:15.980Z,11.70
2022-12-13T00:46:44.236Z,11.43
2022-12-13T00:49:13.424Z,10.73
2022-12-13T00:51:42.662Z,11.30
2022-12-13T00:54:11.497Z,10.97
2022-12-13T00:56:39.685Z,10.87
2022-12-13T00:59:07.537Z,10.87
2022-12-13T01:01:37.540Z,11.33
2022-12-13T01:04:06.809Z,11.30
2022-12-13T01:06:37.770Z,11.47
2022-12-13T01:09:12.356Z,12.53
2022-12-13T01:11:40.276Z,11.63
2022-12-13T01:14:08.150Z,12.60
2022-12-13T01:16:36.180Z,11.67
2022-12-13T01:19:04.350Z,11.53
2022-12-13T01:21:32.216Z,11.20
2022-12-13T01:24:04.363Z,11.10
2022-12-13T01:26:34.965Z,11.53
2022-12-13T01:29:05.285Z,10.80
2022-12-13T01:31:33.560Z,11.77
2022-12-13T01:34:10.668Z,11.43
2022-12-13T01:36:39.227Z,11.50
2022-12-13T01:39:14.397Z,11.10
2022-12-13T01:41:45.552Z,11.30
2022-12-13T01:44:50.739Z,10.87
2022-12-13T01:47:23.775Z,10.93
2022-12-13T01:49:53.158Z,11.07
2022-12-13T01:52:22.610Z,11.57
2022-12-13T01:54:54.182Z,10.90
2022-12-13T01:57:24.441Z,11.27
2022-12-13T01:59:53.722Z,11.60
2022-12-13T02:02:22.073Z,13.23
2022-12-13T02:04:54.371Z,10.97
2022-12-13T02:07:27.566Z,11.77
2022-12-13T02:09:58.757Z,11.17
2022-12-13T02:12:31.256Z,11.03
2022-12-13T02:15:01.622Z,11.47
2022-12-13T02:17:44.499Z,11.73
2022-12-13T02:20:44.287Z,12.23
2022-12-13T02:23:57.826Z,11.57
2022-12-13T02:26:44.160Z,11.47
2022-12-13T02:29:41.158Z,11.10
2022-12-13T02:32:17.348Z,10.67
2022-12-13T02:34:51.545Z,8.70
2022-12-13T02:37:26.315Z,11.17
2022-12-13T02:40:01.730Z,11.57
2022-12-13T02:42:34.902Z,11.40
2022-12-13T02:45:08.352Z,11.80
2022-12-13T02:47:41.532Z,11.27
2022-12-13T02:50:14.948Z,12.10
2022-12-13T02:52:46.625Z,12.23
2022-12-13T02:55:17.709Z,12.20
2022-12-13T02:57:48.704Z,10.90
2022-12-13T03:00:19.157Z,10.90
2022-12-13T03:03:01.910Z,12.20
2022-12-13T03:05:57.772Z,11.10
2022-12-13T03:08:30.590Z,12.83
2022-12-13T03:11:05.919Z,11.90
2022-12-13T03:13:41.987Z,11.80
2022-12-13T03:16:15.910Z,11.67
2022-12-13T03:18:54.006Z,11.43
2022-12-13T03:21:23.176Z,12.53
2022-12-13T03:23:51.022Z,10.93
2022-12-13T03:26:22.488Z,12.40
2022-12-13T03:28:50.610Z,12.67
2022-12-13T03:31:18.741Z,11.87
2022-12-13T03:33:47.059Z,11.67
2022-12-13T03:36:18.780Z,10.67
2022-12-13T03:38:47.017Z,11.80
2022-12-13T03:41:17.964Z,11.10
2022-12-13T03:43:46.323Z,12.63
2022-12-13T03:46:14.229Z,12.07
2022-12-13T03:48:42.096Z,11.47
2022-12-13T03:51:09.924Z,12.57
2022-12-13T03:53:39.084Z,12.10
2022-12-13T03:56:07.378Z,12.23
2022-12-13T03:58:37.900Z,12.53
2022-12-13T04:01:07.713Z,11.17
2022-12-13T04:03:35.865Z,12.10
2022-12-13T04:06:04.635Z,11.60
2022-12-13T04:08:33.219Z,11.60
2022-12-13T04:11:23.651Z,12.70
2022-12-13T04:13:50.908Z,11.37
2022-12-13T04:16:18.848Z,12.90
2022-12-13T04:18:46.857Z,11.57
2022-12-13T04:21:14.970Z,11.40
2022-12-13T04:23:42.799Z,12.53
2022-12-13T04:26:12.053Z,10.80
2022-12-13T04:28:39.984Z,11.70
2022-12-13T04:31:07.960Z,11.80
2022-12-13T04:33:35.852Z,12.40
2022-12-13T04:36:04.195Z,11.80
2022-12-13T04:38:32.073Z,12.77
2022-12-13T04:41:14.225Z,11.67
2022-12-13T04:43:43.466Z,10.50
2022-12-13T04:46:12.742Z,10.50
2022-12-13T04:48:40.731Z,12.07
2022-12-13T04:51:08.656Z,11.57
2022-12-13T04:53:36.506Z,10.67
2022-12-13T04:56:05.477Z,11.30
2022-12-13T04:58:33.343Z,10.87
2022-12-13T05:01:02.965Z,12.13
2022-12-13T05:03:30.893Z,10.77
2022-12-13T05:05:58.699Z,11.90
2022-12-13T05:08:26.569Z,13.40
2022-12-13T05:10:55.563Z,13.30
2022-12-13T05:13:23.342Z,12.03
2022-12-13T05:15:56.085Z,12.27
2022-12-13T05:18:25.782Z,10.50
2022-12-13T05:20:54.396Z,11.23
2022-12-13T05:23:25.013Z,11.93
2022-12-13T05:25:53.165Z,13.00
2022-12-13T05:28:27.572Z,13.47
2022-12-13T05:30:57.554Z,14.40
2022-12-13T05:33:27.211Z,12.03
2022-12-13T05:36:00.507Z,12.63
2022-12-13T05:38:32.310Z,11.40
2022-12-13T05:41:00.944Z,11.33
2022-12-13T05:43:42.077Z,11.33
2022-12-13T05:46:10.684Z,11.20
2022-12-13T05:48:40.075Z,10.23
2022-12-13T05:51:09.794Z,12.07
2022-12-13T05:53:40.006Z,12.00
2022-12-13T05:56:10.198Z,12.30
2022-12-13T05:58:38.993Z,12.07
2022-12-13T06:01:08.730Z,11.50
2022-12-13T06:03:36.937Z,13.27
2022-12-13T06:06:08.591Z,13.03
2022-12-13T06:08:37.249Z,14.03
2022-12-13T06:11:10.662Z,13.10
2022-12-13T06:13:43.246Z,13.47
2022-12-13T06:16:21.921Z,14.60
2022-12-13T06:18:55.757Z,12.40
2022-12-13T06:21:40.715Z,13.03
2022-12-13T06:24:11.811Z,13.07
2022-12-13T06:26:39.560Z,12.10
2022-12-13T06:29:07.612Z,13.07
2022-12-13T06:31:35.503Z,13.70
2022-12-13T06:34:14.835Z,13.30
2022-12-13T06:36:44.691Z,11.77
2022-12-13T06:39:12.559Z,13.03
2022-12-13T06:41:40.472Z,12.50
2022-12-13T06:44:08.917Z,12.60
2022-12-13T06:46:37.055Z,13.50
2022-12-13T06:49:08.978Z,12.57
2022-12-13T06:51:36.798Z,21.20
2022-12-13T06:54:06.067Z,27.43
2022-12-13T06:56:33.858Z,64.97
2022-12-13T06:59:02.387Z,39.70
2022-12-13T07:01:37.895Z,24.43
2022-12-13T07:04:29.594Z,19.60
2022-12-13T07:06:54.746Z,17.10
2022-12-13T07:09:24.018Z,17.10
2022-12-13T07:11:52.662Z,18.60
2022-12-13T07:14:21.051Z,18.17
2022-12-13T07:16:48.926Z,16.43
2022-12-13T07:19:23.782Z,16.47
2022-12-13T07:21:52.686Z,15.43
2022-12-13T07:24:20.732Z,13.93
2022-12-13T07:26:49.943Z,13.83
2022-12-13T07:29:22.476Z,15.80
2022-12-13T07:31:50.804Z,14.47
2022-12-13T07:34:18.740Z,14.03
2022-12-13T07:36:46.842Z,15.77
2022-12-13T07:39:14.671Z,15.40
2022-12-13T07:41:42.576Z,17.20
2022-12-13T07:44:11.764Z,24.87
2022-12-13T07:46:39.805Z,34.70
2022-12-13T07:49:07.770Z,53.27
2022-12-13T07:51:36.318Z,47.90
2022-12-13T07:54:06.255Z,24.03
2022-12-13T07:56:34.831Z,20.50
2022-12-13T07:59:02.784Z,18.30
2022-12-13T08:01:34.531Z,16.83
2022-12-13T08:04:03.004Z,15.57
2022-12-13T08:06:31.443Z,14.47
2022-12-13T08:08:59.411Z,15.07
2022-12-13T08:11:27.251Z,13.33
2022-12-13T08:13:55.232Z,15.83
2022-12-13T08:16:26.685Z,15.00
2022-12-13T08:19:02.697Z,15.13
2022-12-13T08:24:24.580Z,12.57
2022-12-13T08:26:55.380Z,13.23
2022-12-13T08:29:33.477Z,14.70
2022-12-13T08:32:04.366Z,14.73
2022-12-13T08:34:33.590Z,13.40
2022-12-13T08:37:03.581Z,15.10
2022-12-13T08:39:34.654Z,14.23
2022-12-13T08:42:15.214Z,13.63
2022-12-13T08:44:47.006Z,11.93
2022-12-13T08:47:23.203Z,9.83
2022-12-13T08:49:54.090Z,7.50
2022-12-13T08:52:23.236Z,7.20
2022-12-13T08:54:51.356Z,7.07
2022-12-13T08:57:19.193Z,6.83
2022-12-13T08:59:47.051Z,8.10
2022-12-13T09:02:15.352Z,8.10
2022-12-13T09:04:43.481Z,7.70
2022-12-13T09:07:12.886Z,7.30
2022-12-13T09:09:40.702Z,7.13
2022-12-13T09:12:10.695Z,7.30
2022-12-13T09:14:45.727Z,6.60
2022-12-13T09:17:24.526Z,7.63
2022-12-13T09:19:58.210Z,6.33
2022-12-13T09:22:33.398Z,7.00
2022-12-13T09:25:03.009Z,6.90
2022-12-13T09:27:39.516Z,8.00
2022-12-13T09:30:12.148Z,7.27
2022-12-13T09:32:40.606Z,6.67
2022-12-13T09:35:09.390Z,6.47
2022-12-13T09:37:44.155Z,6.47
2022-12-13T09:40:25.682Z,7.67
2022-12-13T09:43:13.686Z,6.60
2022-12-13T09:45:46.761Z,6.73
2022-12-13T09:48:22.707Z,7.37
2022-12-13T09:51:15.944Z,7.10
2022-12-13T09:53:42.601Z,6.40
2022-12-13T09:56:13.066Z,7.33
2022-12-13T09:58:40.960Z,7.20
2022-12-13T10:01:08.862Z,6.80
2022-12-13T10:03:36.774Z,6.57
2022-12-13T10:06:22.802Z,5.30
2022-12-13T10:08:58.364Z,6.37
2022-12-13T10:11:31.850Z,6.30
2022-12-13T10:14:03.695Z,6.40
2022-12-13T10:16:43.649Z,6.70
2022-12-13T10:19:29.036Z,6.80
2022-12-13T10:22:02.081Z,7.57
2022-12-13T10:24:49.443Z,6.43
2022-12-13T10:27:19.611Z,7.70
2022-12-13T10:29:59.825Z,7.30
2022-12-13T10:32:27.735Z,7.30
2022-12-13T10:34:56.278Z,6.83
2022-12-13T10:37:31.635Z,6.47
2022-12-13T10:40:00.915Z,7.90
2022-12-13T10:42:33.880Z,6.57
2022-12-13T10:45:23.603Z,6.27
2022-12-13T10:47:52.246Z,7.60
2022-12-13T10:50:26.342Z,7.43
2022-12-13T10:52:55.873Z,7.90
2022-12-13T10:55:30.636Z,7.10
2022-12-13T10:58:02.357Z,7.47
2022-12-13T11:00:38.762Z,7.40
2022-12-13T11:03:08.219Z,6.33
2022-12-13T11:05:38.232Z,6.10
2022-12-13T11:08:17.558Z,7.73
2022-12-13T11:10:47.782Z,7.03
2022-12-13T11:13:26.237Z,7.27
2022-12-13T11:15:57.786Z,6.80
2022-12-13T11:18:28.127Z,7.27
2022-12-13T11:20:58.351Z,7.87
2022-12-13T11:23:30.717Z,7.40
2022-12-13T11:26:05.922Z,8.03
2022-12-13T11:28:57.616Z,7.47
2022-12-13T11:31:32.763Z,7.50
2022-12-13T11:34:10.242Z,8.40
2022-12-13T11:36:48.522Z,7.30
2022-12-13T11:39:22.288Z,7.97
2022-12-13T11:41:56.154Z,7.77
2022-12-13T11:44:30.423Z,7.90
2022-12-13T11:47:01.092Z,8.53
2022-12-13T11:49:39.344Z,8.87
2022-12-13T11:52:16.404Z,8.00
2022-12-13T11:54:51.530Z,7.87
2022-12-13T11:57:33.313Z,8.37
2022-12-13T12:00:13.168Z,8.70
2022-12-13T12:02:48.546Z,7.33
2022-12-13T12:05:26.454Z,7.90
2022-12-13T12:08:43.430Z,8.20
2022-12-13T12:10:50.255Z,8.10
2022-12-13T12:13:25.434Z,8.07
2022-12-13T12:16:01.661Z,7.63
2022-12-13T12:18:29.710Z,7.40
2022-12-13T12:21:07.663Z,7.43
2022-12-13T12:23:52.434Z,8.10
2022-12-13T12:26:27.294Z,7.57
2022-12-13T12:29:21.228Z,9.70
2022-12-13T12:31:54.989Z,7.60
2022-12-13T12:34:34.785Z,8.93
2022-12-13T12:37:12.967Z,9.43
2022-12-13T12:40:02.241Z,8.60
2022-12-13T12:43:13.952Z,8.20
2022-12-13T12:45:59.683Z,8.40
2022-12-13T12:48:56.990Z,7.80
2022-12-13T12:51:34.072Z,8.40
2022-12-13T12:54:20.022Z,8.37
2022-12-13T12:56:56.475Z,8.13
2022-12-13T12:59:34.474Z,12.83
2022-12-13T13:02:12.672Z,13.57
2022-12-13T13:04:47.016Z,9.57
2022-12-13T13:07:22.608Z,10.90
2022-12-13T13:09:55.230Z,8.93
2022-12-13T13:12:30.353Z,8.83
2022-12-13T13:14:59.095Z,8.40
2022-12-13T13:17:48.136Z,8.70
2022-12-13T13:20:26.426Z,7.77
2022-12-13T13:23:17.519Z,8.07
2022-12-13T13:28:44.783Z,7.93
2022-12-13T13:31:12.658Z,8.40
2022-12-13T13:33:47.230Z,7.73
2022-12-13T13:36:47.217Z,8.87
2022-12-13T13:39:17.047Z,7.97
2022-12-13T13:42:09.110Z,8.97
2022-12-13T13:45:03.143Z,9.17
2022-12-13T13:47:42.842Z,8.27
2022-12-13T13:50:41.461Z,8.67
2022-12-13T13:53:46.694Z,8.70
2022-12-13T13:56:36.677Z,8.83
2022-12-13T13:59:24.762Z,8.50
2022-12-13T14:02:06.387Z,7.30
2022-12-13T14:05:16.921Z,8.60
2022-12-13T14:08:29.552Z,7.67
2022-12-13T14:11:22.151Z,8.50
2022-12-13T14:14:27.031Z,8.60
2022-12-13T14:17:32.810Z,8.13
2022-12-13T14:20:39.528Z,7.53
2022-12-13T14:23:13.739Z,7.70
2022-12-13T14:26:07.169Z,7.40
2022-12-13T14:28:46.130Z,7.27
2022-12-13T14:31:21.618Z,8.10
2022-12-13T14:33:52.123Z,7.23
2022-12-13T14:36:28.650Z,8.33
2022-12-13T14:39:03.498Z,8.50
2022-12-13T14:41:32.799Z,9.80
2022-12-13T14:44:16.434Z,7.60
2022-12-13T14:46:55.676Z,8.70
2022-12-13T14:49:25.999Z,8.40
2022-12-13T14:52:01.453Z,8.87
2022-12-13T14:54:46.038Z,8.77
2022-12-13T14:57:20.553Z,8.73
2022-12-13T14:59:50.725Z,9.37
2022-12-13T15:02:30.477Z,8.97
2022-12-13T15:05:02.079Z,9.57
2022-12-13T15:07:33.836Z,13.53
2022-12-13T15:10:04.713Z,20.60
2022-12-13T15:12:34.150Z,21.80
2022-12-13T15:15:04.127Z,26.77
2022-12-13T15:17:35.809Z,23.30
2022-12-13T15:20:25.386Z,19.10
2022-12-13T15:23:01.988Z,13.70
2022-12-13T15:25:40.563Z,11.03
2022-12-13T15:28:18.196Z,15.37
2022-12-13T15:30:49.859Z,24.77
2022-12-13T15:33:20.739Z,30.50
2022-12-13T15:35:49.677Z,25.93
2022-12-13T15:38:29.071Z,21.87
2022-12-13T15:40:57.471Z,19.80
2022-12-13T15:43:36.335Z,15.40
2022-12-13T15:46:12.628Z,14.47
2022-12-13T15:48:48.313Z,14.90
2022-12-13T15:51:30.347Z,14.17
2022-12-13T15:54:05.177Z,13.40
2022-12-13T15:56:36.472Z,14.90
2022-12-13T15:59:26.446Z,13.57
2022-12-13T16:01:58.655Z,27.50
2022-12-13T16:04:29.286Z,61.00
2022-12-13T16:07:03.228Z,42.70
2022-12-13T16:09:38.145Z,20.87
2022-12-13T16:12:07.995Z,16.53
2022-12-13T16:14:49.255Z,14.67
2022-12-13T16:17:24.587Z,12.60
2022-12-13T16:19:53.558Z,12.77
2022-12-13T16:22:23.993Z,12.87
2022-12-13T16:24:53.060Z,10.77
2022-12-13T16:27:21.546Z,9.77
2022-12-13T16:29:50.867Z,13.87
2022-12-13T16:32:18.858Z,19.27
2022-12-13T16:34:46.791Z,32.30
2022-12-13T16:37:26.478Z,37.43
2022-12-13T16:39:56.628Z,22.93
2022-12-13T16:42:26.149Z,15.77
2022-12-13T16:45:32.303Z,13.90
2022-12-13T16:47:49.316Z,20.40
2022-12-13T16:50:20.125Z,20.37
2022-12-13T16:52:48.173Z,18.70
2022-12-13T16:55:16.818Z,14.00
2022-12-13T16:57:56.419Z,14.27
2022-12-13T17:00:26.779Z,13.60
2022-12-13T17:02:54.946Z,13.53
2022-12-13T17:05:23.656Z,13.17
2022-12-13T17:07:51.531Z,12.17
2022-12-13T17:10:20.259Z,13.00
2022-12-13T17:12:48.127Z,12.90
2022-12-13T17:15:17.098Z,12.47
2022-12-13T17:17:47.710Z,12.77
2022-12-13T17:20:17.256Z,11.07
2022-12-13T17:22:46.538Z,12.57
2022-12-13T17:25:14.965Z,12.33
2022-12-13T17:27:43.098Z,37.90
2022-12-13T17:30:15.486Z,53.00
2022-12-13T17:32:43.491Z,25.80
2022-12-13T17:35:17.888Z,33.03
2022-12-13T17:37:46.603Z,24.30
2022-12-13T17:40:14.439Z,24.80
2022-12-13T17:42:42.405Z,17.67
2022-12-13T17:45:11.076Z,13.03
2022-12-13T17:47:39.698Z,13.80
2022-12-13T17:50:08.920Z,12.40
2022-12-13T17:52:39.099Z,12.70
2022-12-13T17:55:07.511Z,11.40
2022-12-13T17:57:35.823Z,12.80
2022-12-13T18:00:04.914Z,13.13
2022-12-13T18:02:40.741Z,12.97
2022-12-13T18:05:17.628Z,12.27
2022-12-13T18:07:50.638Z,12.30
2022-12-13T18:10:19.051Z,15.43
2022-12-13T18:12:46.835Z,14.90
2022-12-13T18:15:14.939Z,17.60
2022-12-13T18:18:10.055Z,17.57
2022-12-13T18:20:30.917Z,19.80
2022-12-13T18:23:00.087Z,21.53
2022-12-13T18:25:28.139Z,19.60
2022-12-13T18:28:00.676Z,19.60
2022-12-13T18:30:31.058Z,19.47
2022-12-13T18:32:58.894Z,18.97
2022-12-13T18:35:26.808Z,19.80
2022-12-13T18:37:54.605Z,19.60
2022-12-13T18:40:23.849Z,17.70
2022-12-13T18:42:52.116Z,17.80
2022-12-13T18:45:20.493Z,18.73
2022-12-13T18:47:48.996Z,18.23
2022-12-13T18:50:16.964Z,39.67
2022-12-13T18:52:44.879Z,27.93
2022-12-13T18:55:13.191Z,22.00
2022-12-13T18:57:42.855Z,22.50
2022-12-13T19:00:12.801Z,20.80
2022-12-13T19:02:41.676Z,21.50
2022-12-13T19:05:10.509Z,21.57
2022-12-13T19:07:38.394Z,22.93
2022-12-13T19:10:06.820Z,20.67
2022-12-13T19:12:34.997Z,20.77
2022-12-13T19:15:06.092Z,20.40
2022-12-13T19:17:34.461Z,24.30
2022-12-13T19:20:02.626Z,20.87
2022-12-13T19:22:30.800Z,21.13
2022-12-13T19:24:58.896Z,19.57
2022-12-13T19:27:26.808Z,20.90
2022-12-13T19:29:54.731Z,25.87
2022-12-13T19:32:23.956Z,23.17
2022-12-13T19:34:51.837Z,21.30
2022-12-13T19:37:19.660Z,21.57
2022-12-13T19:39:47.436Z,20.27
2022-12-13T19:42:15.382Z,19.20
2022-12-13T19:44:43.157Z,21.47
2022-12-13T19:47:11.047Z,22.27
2022-12-13T19:49:41.441Z,21.60
2022-12-13T19:52:09.328Z,24.43
2022-12-13T19:54:37.206Z,24.50
2022-12-13T19:57:07.366Z,25.07
2022-12-13T19:59:35.564Z,23.97
2022-12-13T20:02:05.522Z,21.13
2022-12-13T20:04:33.551Z,21.77
2022-12-13T20:07:03.361Z,20.67
2022-12-13T20:09:31.285Z,20.07
2022-12-13T20:11:59.106Z,19.33
2022-12-13T20:14:27.368Z,18.80
2022-12-13T20:16:55.338Z,20.63
2022-12-13T20:19:24.012Z,19.73
2022-12-13T20:21:56.698Z,19.20
2022-12-13T20:24:26.410Z,19.10
2022-12-13T20:26:54.301Z,19.20
2022-12-13T20:29:22.951Z,18.73
2022-12-13T20:31:51.587Z,20.80
2022-12-13T20:34:21.025Z,22.00
2022-12-13T20:36:49.282Z,19.83
2022-12-13T20:39:17.113Z,19.67
2022-12-13T20:41:46.303Z,20.30
2022-12-13T20:44:14.607Z,19.97
2022-12-13T20:46:42.559Z,19.63
2022-12-13T20:49:11.396Z,19.27
2022-12-13T20:51:41.519Z,18.77
2022-12-13T20:54:09.769Z,19.03
2022-12-13T20:56:39.682Z,18.80
2022-12-13T20:59:11.562Z,18.23
2022-12-13T21:01:40.633Z,18.43
2022-12-13T21:04:10.420Z,18.77
2022-12-13T21:06:40.702Z,19.90
2022-12-13T21:09:10.018Z,19.37
2022-12-13T21:11:40.668Z,18.70
2022-12-13T21:14:18.782Z,20.43
2022-12-13T21:16:50.323Z,20.13
2022-12-13T21:19:21.531Z,19.27
2022-12-13T21:21:50.796Z,19.17
2022-12-13T21:24:20.210Z,19.40
2022-12-13T21:26:48.432Z,19.90
2022-12-13T21:29:17.862Z,20.77
2022-12-13T21:31:51.472Z,17.83
2022-12-13T21:34:20.084Z,18.77
2022-12-13T21:36:50.421Z,19.97
2022-12-13T21:39:20.005Z,20.70
2022-12-13T21:41:48.459Z,19.27
2022-12-13T21:44:18.910Z,18.47
2022-12-13T21:47:11.191Z,18.53
2022-12-13T21:49:35.096Z,19.90
2022-12-13T21:52:03.046Z,18.27
2022-12-13T21:54:30.824Z,17.37
2022-12-13T21:57:16.314Z,17.10
2022-12-13T21:59:45.576Z,17.87
2022-12-13T22:02:16.365Z,17.53
2022-12-13T22:04:46.255Z,18.17
2022-12-13T22:07:16.159Z,18.90
2022-12-13T22:09:45.162Z,17.80
2022-12-13T22:12:21.080Z,17.77
2022-12-13T22:14:51.281Z,17.50
2022-12-13T22:17:28.256Z,18.43
2022-12-13T22:19:59.454Z,19.10
2022-12-13T22:22:27.573Z,18.60
2022-12-13T22:24:55.389Z,19.20
2022-12-13T22:27:25.437Z,19.33
2022-12-13T22:29:56.854Z,19.63
2022-12-13T22:32:26.978Z,18.37
2022-12-13T22:34:55.162Z,18.90
2022-12-13T22:37:23.070Z,18.70
2022-12-13T22:39:51.159Z,20.20
2022-12-13T22:42:20.066Z,18.33
2022-12-13T22:44:48.182Z,16.53
2022-12-13T22:47:17.474Z,17.50
2022-12-13T22:49:48.828Z,16.27
2022-12-13T22:52:17.223Z,17.30
2022-12-13T22:54:45.068Z,16.90
2022-12-13T22:57:12.992Z,15.57
2022-12-13T22:59:41.166Z,17.40
2022-12-13T23:02:09.979Z,16.20
2022-12-13T23:04:39.397Z,17.00
2022-12-13T23:07:07.283Z,16.67
2022-12-13T23:09:35.132Z,16.37
2022-12-13T23:12:20.559Z,15.70
2022-12-13T23:14:48.367Z,16.43
2022-12-13T23:17:16.126Z,16.60
2022-12-13T23:19:50.078Z,16.13
2022-12-13T23:22:19.882Z,18.50
2022-12-13T23:24:47.717Z,16.93
2022-12-13T23:27:15.817Z,17.13
2022-12-13T23:29:43.652Z,17.00
2022-12-13T23:32:11.645Z,18.30
2022-12-13T23:34:39.435Z,18.93
2022-12-13T23:37:08.670Z,17.20
2022-12-13T23:39:36.459Z,17.50
2022-12-13T23:42:04.498Z,18.43
2022-12-13T23:44:32.275Z,18.17
2022-12-13T23:47:00.096Z,17.90
2022-12-13T23:49:28.040Z,17.90
2022-12-13T23:51:56.016Z,18.80
2022-12-13T23:54:25.202Z,18.10
2022-12-13T23:56:53.010Z,18.80
2022-12-13T23:59:20.902Z,17.60
